sensor_id;sensor_type;location;lat;lon;timestamp;pressure;altitude;pressure_sealevel;temperature;humidity
70930;BME280;58588;48.102;19.682;2022-11-14T00:00:34;100688.28;;;3.78;100.00
70930;BME280;58588;48.102;19.682;2022-11-14T00:03:36;100680.41;;;3.64;100.00
70930;BME280;58588;48.102;19.682;2022-11-14T00:06:38;100669.94;;;3.73;100.00
70930;BME280;58588;48.102;19.682;2022-11-14T00:09:40;100679.19;;;3.81;100.00
70930;BME280;58588;48.102;19.682;2022-11-14T00:12:44;100677.38;;;3.81;100.00
70930;BME280;58588;48.102;19.682;2022-11-14T00:15:48;100690.88;;;3.67;100.00
70930;BME280;58588;48.102;19.682;2022-11-14T00:18:50;100682.88;;;3.67;100.00
70930;BME280;58588;48.102;19.682;2022-11-14T00:21:53;100690.97;;;3.65;100.00
70930;BME280;58588;48.102;19.682;2022-11-14T00:24:55;100685.09;;;3.73;100.00
70930;BME280;58588;48.102;19.682;2022-11-14T00:27:58;100683.56;;;3.82;100.00
70930;BME280;58588;48.102;19.682;2022-11-14T00:31:00;100692.97;;;3.74;100.00
70930;BME280;58588;48.102;19.682;2022-11-14T00:34:02;100691.88;;;3.77;100.00
70930;BME280;58588;48.102;19.682;2022-11-14T00:37:04;100691.22;;;3.86;100.00
70930;BME280;58588;48.102;19.682;2022-11-14T00:40:07;100685.31;;;3.70;100.00
70930;BME280;58588;48.102;19.682;2022-11-14T00:43:11;100687.63;;;3.74;100.00
70930;BME280;58588;48.102;19.682;2022-11-14T00:46:13;100678.53;;;3.77;100.00
70930;BME280;58588;48.102;19.682;2022-11-14T00:49:15;100679.25;;;3.68;100.00
70930;BME280;58588;48.102;19.682;2022-11-14T00:52:17;100671.97;;;3.70;100.00
70930;BME280;58588;48.102;19.682;2022-11-14T00:55:19;100674.81;;;3.56;100.00
70930;BME280;58588;48.102;19.682;2022-11-14T00:58:22;100677.16;;;3.60;100.00
70930;BME280;58588;48.102;19.682;2022-11-14T01:01:24;100665.28;;;3.64;100.00
70930;BME280;58588;48.102;19.682;2022-11-14T01:04:26;100668.38;;;3.58;100.00
70930;BME280;58588;48.102;19.682;2022-11-14T01:07:28;100678.38;;;3.43;100.00
70930;BME280;58588;48.102;19.682;2022-11-14T01:10:30;100674.00;;;3.42;100.00
70930;BME280;58588;48.102;19.682;2022-11-14T01:13:33;100667.78;;;3.55;100.00
70930;BME280;58588;48.102;19.682;2022-11-14T01:16:35;100660.00;;;3.52;100.00
70930;BME280;58588;48.102;19.682;2022-11-14T01:19:37;100658.88;;;3.67;100.00
70930;BME280;58588;48.102;19.682;2022-11-14T01:22:39;100656.75;;;3.59;100.00
70930;BME280;58588;48.102;19.682;2022-11-14T01:25:42;100656.88;;;3.58;100.00
70930;BME280;58588;48.102;19.682;2022-11-14T01:28:45;100642.19;;;3.52;100.00
70930;BME280;58588;48.102;19.682;2022-11-14T01:31:47;100647.56;;;3.39;100.00
70930;BME280;58588;48.102;19.682;2022-11-14T01:34:49;100649.31;;;3.52;100.00
70930;BME280;58588;48.102;19.682;2022-11-14T01:37:51;100651.31;;;3.37;100.00
70930;BME280;58588;48.102;19.682;2022-11-14T01:40:53;100647.97;;;3.46;100.00
70930;BME280;58588;48.102;19.682;2022-11-14T01:43:56;100645.84;;;3.38;100.00
70930;BME280;58588;48.102;19.682;2022-11-14T01:46:58;100653.81;;;3.51;100.00
70930;BME280;58588;48.102;19.682;2022-11-14T01:50:04;100649.69;;;3.34;100.00
70930;BME280;58588;48.102;19.682;2022-11-14T01:53:06;100642.34;;;3.38;100.00
70930;BME280;58588;48.102;19.682;2022-11-14T01:56:09;100652.09;;;3.26;100.00
70930;BME280;58588;48.102;19.682;2022-11-14T01:59:17;100647.03;;;3.34;100.00
70930;BME280;58588;48.102;19.682;2022-11-14T02:02:23;100645.66;;;3.29;100.00
70930;BME280;58588;48.102;19.682;2022-11-14T02:05:26;100651.34;;;3.24;100.00
70930;BME280;58588;48.102;19.682;2022-11-14T02:08:28;100645.56;;;3.30;100.00
70930;BME280;58588;48.102;19.682;2022-11-14T02:11:35;100635.31;;;3.37;100.00
70930;BME280;58588;48.102;19.682;2022-11-14T02:14:40;100645.28;;;3.46;100.00
70930;BME280;58588;48.102;19.682;2022-11-14T02:17:44;100639.69;;;3.38;100.00
70930;BME280;58588;48.102;19.682;2022-11-14T02:20:47;100652.31;;;3.47;100.00
70930;BME280;58588;48.102;19.682;2022-11-14T02:23:50;100644.25;;;3.48;100.00
70930;BME280;58588;48.102;19.682;2022-11-14T02:26:51;100643.84;;;3.42;100.00
70930;BME280;58588;48.102;19.682;2022-11-14T02:29:53;100646.19;;;3.34;100.00
70930;BME280;58588;48.102;19.682;2022-11-14T02:32:55;100650.09;;;3.41;100.00
70930;BME280;58588;48.102;19.682;2022-11-14T02:35:59;100647.56;;;3.39;100.00
70930;BME280;58588;48.102;19.682;2022-11-14T02:39:01;100645.66;;;3.29;100.00
70930;BME280;58588;48.102;19.682;2022-11-14T02:42:03;100650.03;;;3.30;100.00
70930;BME280;58588;48.102;19.682;2022-11-14T02:45:06;100655.47;;;3.28;100.00
70930;BME280;58588;48.102;19.682;2022-11-14T02:48:09;100649.94;;;3.31;100.00
70930;BME280;58588;48.102;19.682;2022-11-14T02:51:12;100647.00;;;3.10;100.00
70930;BME280;58588;48.102;19.682;2022-11-14T02:54:14;100655.75;;;2.87;100.00
70930;BME280;58588;48.102;19.682;2022-11-14T02:57:16;100648.41;;;2.90;100.00
70930;BME280;58588;48.102;19.682;2022-11-14T03:00:18;100648.63;;;3.00;100.00
70930;BME280;58588;48.102;19.682;2022-11-14T03:03:20;100647.13;;;2.96;100.00
70930;BME280;58588;48.102;19.682;2022-11-14T03:06:24;100653.19;;;2.98;100.00
70930;BME280;58588;48.102;19.682;2022-11-14T03:09:25;100641.03;;;3.07;100.00
70930;BME280;58588;48.102;19.682;2022-11-14T03:12:27;100643.34;;;3.11;100.00
70930;BME280;58588;48.102;19.682;2022-11-14T03:15:29;100640.78;;;3.22;100.00
70930;BME280;58588;48.102;19.682;2022-11-14T03:18:31;100615.94;;;3.22;100.00
70930;BME280;58588;48.102;19.682;2022-11-14T03:21:35;100622.25;;;3.21;100.00
70930;BME280;58588;48.102;19.682;2022-11-14T03:24:37;100619.47;;;3.22;100.00
70930;BME280;58588;48.102;19.682;2022-11-14T03:27:39;100625.75;;;3.21;100.00
70930;BME280;58588;48.102;19.682;2022-11-14T03:30:41;100617.47;;;3.13;100.00
70930;BME280;58588;48.102;19.682;2022-11-14T03:33:43;100622.31;;;3.32;100.00
70930;BME280;58588;48.102;19.682;2022-11-14T03:36:46;100608.75;;;3.35;100.00
70930;BME280;58588;48.102;19.682;2022-11-14T03:39:48;100607.69;;;3.38;100.00
70930;BME280;58588;48.102;19.682;2022-11-14T03:42:50;100599.25;;;3.44;100.00
70930;BME280;58588;48.102;19.682;2022-11-14T03:45:52;100595.09;;;3.40;100.00
70930;BME280;58588;48.102;19.682;2022-11-14T03:48:54;100594.75;;;3.20;100.00
70930;BME280;58588;48.102;19.682;2022-11-14T03:51:58;100586.63;;;3.22;100.00
70930;BME280;58588;48.102;19.682;2022-11-14T03:55:00;100596.72;;;3.30;100.00
70930;BME280;58588;48.102;19.682;2022-11-14T03:58:02;100588.25;;;3.25;100.00
70930;BME280;58588;48.102;19.682;2022-11-14T04:01:04;100582.47;;;3.31;100.00
70930;BME280;58588;48.102;19.682;2022-11-14T04:04:06;100585.34;;;3.28;100.00
70930;BME280;58588;48.102;19.682;2022-11-14T04:07:10;100586.94;;;3.30;100.00
70930;BME280;58588;48.102;19.682;2022-11-14T04:10:12;100580.72;;;3.18;100.00
70930;BME280;58588;48.102;19.682;2022-11-14T04:13:14;100585.59;;;3.25;100.00
70930;BME280;58588;48.102;19.682;2022-11-14T04:16:16;100588.69;;;3.18;100.00
70930;BME280;58588;48.102;19.682;2022-11-14T04:19:18;100590.50;;;3.18;100.00
70930;BME280;58588;48.102;19.682;2022-11-14T04:22:21;100594.22;;;3.15;100.00
70930;BME280;58588;48.102;19.682;2022-11-14T04:25:23;100597.63;;;3.17;100.00
70930;BME280;58588;48.102;19.682;2022-11-14T04:28:25;100587.41;;;3.24;100.00
70930;BME280;58588;48.102;19.682;2022-11-14T04:31:27;100578.44;;;3.25;100.00
70930;BME280;58588;48.102;19.682;2022-11-14T04:34:29;100576.56;;;3.14;100.00
70930;BME280;58588;48.102;19.682;2022-11-14T04:37:32;100581.34;;;3.09;100.00
70930;BME280;58588;48.102;19.682;2022-11-14T04:40:34;100586.81;;;3.08;100.00
70930;BME280;58588;48.102;19.682;2022-11-14T04:43:36;100586.94;;;3.06;100.00
70930;BME280;58588;48.102;19.682;2022-11-14T04:46:38;100584.78;;;2.99;100.00
70930;BME280;58588;48.102;19.682;2022-11-14T04:49:40;100576.59;;;3.02;100.00
70930;BME280;58588;48.102;19.682;2022-11-14T04:52:43;100569.75;;;3.10;100.00
70930;BME280;58588;48.102;19.682;2022-11-14T04:55:45;100572.41;;;3.10;100.00
70930;BME280;58588;48.102;19.682;2022-11-14T04:58:47;100570.81;;;3.08;100.00
70930;BME280;58588;48.102;19.682;2022-11-14T05:01:49;100571.66;;;3.08;100.00
70930;BME280;58588;48.102;19.682;2022-11-14T05:04:51;100572.72;;;3.18;100.00
70930;BME280;58588;48.102;19.682;2022-11-14T05:07:54;100565.63;;;3.06;100.00
70930;BME280;58588;48.102;19.682;2022-11-14T05:10:57;100563.13;;;3.16;100.00
70930;BME280;58588;48.102;19.682;2022-11-14T05:13:58;100564.09;;;3.15;100.00
70930;BME280;58588;48.102;19.682;2022-11-14T05:17:00;100559.53;;;3.04;100.00
70930;BME280;58588;48.102;19.682;2022-11-14T05:20:03;100562.75;;;2.97;100.00
70930;BME280;58588;48.102;19.682;2022-11-14T05:23:10;100569.56;;;3.01;100.00
70930;BME280;58588;48.102;19.682;2022-11-14T05:26:18;100559.53;;;3.04;100.00
70930;BME280;58588;48.102;19.682;2022-11-14T05:29:20;100565.88;;;2.90;100.00
70930;BME280;58588;48.102;19.682;2022-11-14T05:32:22;100574.19;;;2.86;100.00
70930;BME280;58588;48.102;19.682;2022-11-14T05:35:24;100574.50;;;2.81;100.00
70930;BME280;58588;48.102;19.682;2022-11-14T05:38:27;100559.69;;;2.90;100.00
70930;BME280;58588;48.102;19.682;2022-11-14T05:41:29;100563.72;;;2.95;100.00
70930;BME280;58588;48.102;19.682;2022-11-14T05:44:31;100558.84;;;2.89;100.00
70930;BME280;58588;48.102;19.682;2022-11-14T05:47:33;100556.59;;;2.96;100.00
70930;BME280;58588;48.102;19.682;2022-11-14T05:50:35;100562.69;;;2.85;100.00
70930;BME280;58588;48.102;19.682;2022-11-14T05:53:39;100558.41;;;2.95;100.00
70930;BME280;58588;48.102;19.682;2022-11-14T05:56:41;100562.03;;;2.94;100.00
70930;BME280;58588;48.102;19.682;2022-11-14T05:59:43;100576.84;;;2.86;100.00
70930;BME280;58588;48.102;19.682;2022-11-14T06:02:45;100577.59;;;2.88;100.00
70930;BME280;58588;48.102;19.682;2022-11-14T06:05:47;100578.22;;;2.91;100.00
70930;BME280;58588;48.102;19.682;2022-11-14T06:08:51;100569.66;;;2.99;100.00
70930;BME280;58588;48.102;19.682;2022-11-14T06:11:53;100574.94;;;3.12;100.00
70930;BME280;58588;48.102;19.682;2022-11-14T06:14:55;100570.63;;;2.98;100.00
70930;BME280;58588;48.102;19.682;2022-11-14T06:17:57;100572.13;;;3.02;100.00
70930;BME280;58588;48.102;19.682;2022-11-14T06:20:59;100576.41;;;2.92;100.00
70930;BME280;58588;48.102;19.682;2022-11-14T06:24:04;100574.59;;;2.92;100.00
70930;BME280;58588;48.102;19.682;2022-11-14T06:27:06;100580.84;;;3.04;100.00
70930;BME280;58588;48.102;19.682;2022-11-14T06:30:09;100583.94;;;2.98;100.00
70930;BME280;58588;48.102;19.682;2022-11-14T06:33:11;100588.88;;;2.91;100.00
70930;BME280;58588;48.102;19.682;2022-11-14T06:36:14;100583.91;;;3.11;100.00
70930;BME280;58588;48.102;19.682;2022-11-14T06:39:18;100592.69;;;3.00;100.00
70930;BME280;58588;48.102;19.682;2022-11-14T06:42:19;100593.50;;;3.13;100.00
70930;BME280;58588;48.102;19.682;2022-11-14T06:45:21;100591.69;;;3.14;100.00
70930;BME280;58588;48.102;19.682;2022-11-14T06:48:23;100594.31;;;3.27;100.00
70930;BME280;58588;48.102;19.682;2022-11-14T06:51:25;100592.28;;;3.17;100.00
70930;BME280;58588;48.102;19.682;2022-11-14T06:54:29;100593.22;;;3.29;100.00
70930;BME280;58588;48.102;19.682;2022-11-14T06:57:31;100590.22;;;3.34;100.00
70930;BME280;58588;48.102;19.682;2022-11-14T07:00:32;100590.47;;;3.55;100.00
70930;BME280;58588;48.102;19.682;2022-11-14T07:03:35;100593.22;;;3.53;100.00
70930;BME280;58588;48.102;19.682;2022-11-14T07:06:37;100594.25;;;3.63;100.00
70930;BME280;58588;48.102;19.682;2022-11-14T07:09:40;100589.56;;;3.43;100.00
70930;BME280;58588;48.102;19.682;2022-11-14T07:12:42;100596.34;;;3.23;100.00
70930;BME280;58588;48.102;19.682;2022-11-14T07:15:49;100598.91;;;3.48;100.00
70930;BME280;58588;48.102;19.682;2022-11-14T07:18:51;100593.06;;;3.43;100.00
70930;BME280;58588;48.102;19.682;2022-11-14T07:21:53;100595.88;;;3.42;100.00
70930;BME280;58588;48.102;19.682;2022-11-14T07:24:56;100590.75;;;3.63;100.00
70930;BME280;58588;48.102;19.682;2022-11-14T07:27:58;100585.81;;;3.45;100.00
70930;BME280;58588;48.102;19.682;2022-11-14T07:31:02;100589.44;;;3.68;100.00
70930;BME280;58588;48.102;19.682;2022-11-14T07:34:03;100579.66;;;3.80;100.00
70930;BME280;58588;48.102;19.682;2022-11-14T07:37:06;100576.53;;;3.86;100.00
70930;BME280;58588;48.102;19.682;2022-11-14T07:40:11;100583.69;;;3.86;100.00
70930;BME280;58588;48.102;19.682;2022-11-14T07:43:12;100579.19;;;3.86;100.00
70930;BME280;58588;48.102;19.682;2022-11-14T07:46:16;100584.06;;;3.92;100.00
70930;BME280;58588;48.102;19.682;2022-11-14T07:49:18;100583.28;;;4.14;100.00
70930;BME280;58588;48.102;19.682;2022-11-14T07:52:20;100580.03;;;4.33;100.00
70930;BME280;58588;48.102;19.682;2022-11-14T07:55:23;100581.00;;;4.43;100.00
70930;BME280;58588;48.102;19.682;2022-11-14T07:58:26;100580.31;;;4.52;100.00
70930;BME280;58588;48.102;19.682;2022-11-14T08:01:28;100574.59;;;4.46;100.00
70930;BME280;58588;48.102;19.682;2022-11-14T08:04:30;100585.50;;;4.54;100.00
70930;BME280;58588;48.102;19.682;2022-11-14T08:07:31;100576.03;;;4.61;100.00
70930;BME280;58588;48.102;19.682;2022-11-14T08:10:35;100576.91;;;4.73;100.00
70930;BME280;58588;48.102;19.682;2022-11-14T08:13:37;100580.31;;;4.75;100.00
70930;BME280;58588;48.102;19.682;2022-11-14T08:16:39;100576.78;;;4.52;100.00
70930;BME280;58588;48.102;19.682;2022-11-14T08:19:41;100585.03;;;4.71;100.00
70930;BME280;58588;48.102;19.682;2022-11-14T08:22:43;100583.59;;;4.45;100.00
70930;BME280;58588;48.102;19.682;2022-11-14T08:25:46;100579.47;;;4.63;100.00
70930;BME280;58588;48.102;19.682;2022-11-14T08:28:51;100577.75;;;4.84;100.00
70930;BME280;58588;48.102;19.682;2022-11-14T08:31:53;100572.16;;;4.88;100.00
70930;BME280;58588;48.102;19.682;2022-11-14T08:34:55;100572.59;;;5.15;100.00
70930;BME280;58588;48.102;19.682;2022-11-14T08:37:57;100569.34;;;5.00;100.00
70930;BME280;58588;48.102;19.682;2022-11-14T08:41:01;100578.22;;;4.90;100.00
70930;BME280;58588;48.102;19.682;2022-11-14T08:44:03;100569.47;;;5.10;100.00
70930;BME280;58588;48.102;19.682;2022-11-14T08:47:05;100577.16;;;4.70;100.00
70930;BME280;58588;48.102;19.682;2022-11-14T08:50:08;100567.69;;;4.66;100.00
70930;BME280;58588;48.102;19.682;2022-11-14T08:53:09;100576.66;;;4.76;100.00
70930;BME280;58588;48.102;19.682;2022-11-14T08:56:13;100571.16;;;5.11;100.00
70930;BME280;58588;48.102;19.682;2022-11-14T08:59:15;100561.00;;;5.37;100.00
70930;BME280;58588;48.102;19.682;2022-11-14T09:02:17;100565.97;;;5.53;100.00
70930;BME280;58588;48.102;19.682;2022-11-14T09:05:19;100548.28;;;5.61;100.00
70930;BME280;58588;48.102;19.682;2022-11-14T09:08:22;100542.44;;;5.88;100.00
70930;BME280;58588;48.102;19.682;2022-11-14T09:11:25;100552.56;;;5.85;100.00
70930;BME280;58588;48.102;19.682;2022-11-14T09:14:27;100546.50;;;6.04;100.00
70930;BME280;58588;48.102;19.682;2022-11-14T09:17:29;100547.03;;;5.98;100.00
70930;BME280;58588;48.102;19.682;2022-11-14T09:20:31;100543.53;;;6.18;100.00
70930;BME280;58588;48.102;19.682;2022-11-14T09:23:33;100539.56;;;6.43;100.00
70930;BME280;58588;48.102;19.682;2022-11-14T09:26:37;100544.88;;;6.64;100.00
70930;BME280;58588;48.102;19.682;2022-11-14T09:29:39;100543.53;;;6.79;100.00
70930;BME280;58588;48.102;19.682;2022-11-14T09:32:41;100540.00;;;6.79;100.00
70930;BME280;58588;48.102;19.682;2022-11-14T09:35:43;100526.25;;;7.03;100.00
70930;BME280;58588;48.102;19.682;2022-11-14T09:38:45;100538.66;;;6.63;100.00
70930;BME280;58588;48.102;19.682;2022-11-14T09:42:00;100532.59;;;6.61;100.00
70930;BME280;58588;48.102;19.682;2022-11-14T09:45:12;100520.84;;;6.53;100.00
70930;BME280;58588;48.102;19.682;2022-11-14T09:48:18;100519.00;;;6.53;100.00
70930;BME280;58588;48.102;19.682;2022-11-14T09:51:24;100511.06;;;6.73;100.00
70930;BME280;58588;48.102;19.682;2022-11-14T09:54:35;100511.47;;;6.68;100.00
70930;BME280;58588;48.102;19.682;2022-11-14T09:57:42;100512.94;;;6.91;100.00
70930;BME280;58588;48.102;19.682;2022-11-14T10:00:50;100516.31;;;6.84;100.00
70930;BME280;58588;48.102;19.682;2022-11-14T10:04:02;100516.47;;;6.92;100.00
70930;BME280;58588;48.102;19.682;2022-11-14T10:07:20;100509.88;;;6.96;100.00
70930;BME280;58588;48.102;19.682;2022-11-14T10:10:37;100503.13;;;7.21;100.00
70930;BME280;58588;48.102;19.682;2022-11-14T10:13:56;100510.91;;;7.43;100.00
70930;BME280;58588;48.102;19.682;2022-11-14T10:17:13;100512.88;;;7.41;100.00
70930;BME280;58588;48.102;19.682;2022-11-14T10:20:24;100500.88;;;7.55;100.00
70930;BME280;58588;48.102;19.682;2022-11-14T10:23:33;100496.66;;;7.53;100.00
70930;BME280;58588;48.102;19.682;2022-11-14T10:26:50;100493.38;;;7.30;100.00
70930;BME280;58588;48.102;19.682;2022-11-14T10:30:07;100483.09;;;7.64;100.00
70930;BME280;58588;48.102;19.682;2022-11-14T10:33:20;100488.16;;;7.76;100.00
70930;BME280;58588;48.102;19.682;2022-11-14T10:36:44;100480.78;;;7.98;100.00
70930;BME280;58588;48.102;19.682;2022-11-14T10:39:50;100465.44;;;8.18;100.00
70930;BME280;58588;48.102;19.682;2022-11-14T10:42:55;100464.28;;;8.40;100.00
70930;BME280;58588;48.102;19.682;2022-11-14T10:46:04;100458.91;;;8.30;100.00
70930;BME280;58588;48.102;19.682;2022-11-14T10:49:15;100461.78;;;8.56;100.00
70930;BME280;58588;48.102;19.682;2022-11-14T10:52:33;100454.72;;;8.55;100.00
70930;BME280;58588;48.102;19.682;2022-11-14T10:55:37;100445.00;;;8.72;100.00
70930;BME280;58588;48.102;19.682;2022-11-14T10:58:39;100441.81;;;8.86;100.00
70930;BME280;58588;48.102;19.682;2022-11-14T11:01:43;100431.88;;;8.87;100.00
70930;BME280;58588;48.102;19.682;2022-11-14T11:04:46;100426.28;;;8.98;100.00
70930;BME280;58588;48.102;19.682;2022-11-14T11:07:49;100425.91;;;8.93;100.00
70930;BME280;58588;48.102;19.682;2022-11-14T11:11:11;100419.69;;;9.10;100.00
70930;BME280;58588;48.102;19.682;2022-11-14T11:14:32;100416.66;;;9.67;100.00
70930;BME280;58588;48.102;19.682;2022-11-14T11:17:36;100403.97;;;9.85;100.00
70930;BME280;58588;48.102;19.682;2022-11-14T11:20:39;100396.34;;;10.06;100.00
70930;BME280;58588;48.102;19.682;2022-11-14T11:23:47;100397.78;;;9.92;100.00
70930;BME280;58588;48.102;19.682;2022-11-14T11:27:11;100388.22;;;10.24;100.00
70930;BME280;58588;48.102;19.682;2022-11-14T11:30:19;100390.16;;;10.40;100.00
70930;BME280;58588;48.102;19.682;2022-11-14T11:33:25;100375.53;;;10.51;100.00
70930;BME280;58588;48.102;19.682;2022-11-14T11:36:31;100368.03;;;10.87;100.00
70930;BME280;58588;48.102;19.682;2022-11-14T11:39:42;100368.91;;;11.12;100.00
70930;BME280;58588;48.102;19.682;2022-11-14T11:42:52;100370.25;;;11.24;100.00
70930;BME280;58588;48.102;19.682;2022-11-14T11:46:04;100357.75;;;11.47;100.00
70930;BME280;58588;48.102;19.682;2022-11-14T11:49:14;100349.59;;;11.72;100.00
70930;BME280;58588;48.102;19.682;2022-11-14T11:52:26;100358.03;;;11.77;100.00
70930;BME280;58588;48.102;19.682;2022-11-14T11:55:32;100356.34;;;11.92;100.00
70930;BME280;58588;48.102;19.682;2022-11-14T11:58:39;100349.22;;;11.99;100.00
70930;BME280;58588;48.102;19.682;2022-11-14T12:01:43;100331.31;;;12.07;100.00
70930;BME280;58588;48.102;19.682;2022-11-14T12:04:48;100335.31;;;12.11;100.00
70930;BME280;58588;48.102;19.682;2022-11-14T12:07:58;100326.69;;;12.15;100.00
70930;BME280;58588;48.102;19.682;2022-11-14T12:11:08;100320.00;;;12.42;100.00
70930;BME280;58588;48.102;19.682;2022-11-14T12:18:10;100304.84;;;12.56;100.00
70930;BME280;58588;48.102;19.682;2022-11-14T12:21:26;100295.03;;;13.01;100.00
70930;BME280;58588;48.102;19.682;2022-11-14T12:28:25;100288.75;;;13.08;100.00
70930;BME280;58588;48.102;19.682;2022-11-14T12:31:34;100286.69;;;13.33;100.00
70930;BME280;58588;48.102;19.682;2022-11-14T12:34:39;100281.56;;;13.38;100.00
70930;BME280;58588;48.102;19.682;2022-11-14T12:37:46;100280.38;;;13.56;100.00
70930;BME280;58588;48.102;19.682;2022-11-14T12:40:50;100284.00;;;13.63;100.00
70930;BME280;58588;48.102;19.682;2022-11-14T12:44:16;100281.72;;;13.37;100.00
70930;BME280;58588;48.102;19.682;2022-11-14T12:47:20;100288.75;;;13.31;100.00
70930;BME280;58588;48.102;19.682;2022-11-14T12:50:29;100269.97;;;13.45;100.00
70930;BME280;58588;48.102;19.682;2022-11-14T12:53:54;100272.97;;;13.64;100.00
70930;BME280;58588;48.102;19.682;2022-11-14T12:57:02;100260.66;;;13.62;100.00
70930;BME280;58588;48.102;19.682;2022-11-14T13:00:10;100270.53;;;13.70;100.00
70930;BME280;58588;48.102;19.682;2022-11-14T13:03:27;100261.47;;;13.77;100.00
70930;BME280;58588;48.102;19.682;2022-11-14T13:06:44;100262.97;;;13.80;100.00
70930;BME280;58588;48.102;19.682;2022-11-14T13:10:12;100256.69;;;13.94;100.00
70930;BME280;58588;48.102;19.682;2022-11-14T13:13:16;100253.81;;;13.81;100.00
70930;BME280;58588;48.102;19.682;2022-11-14T13:16:35;100250.19;;;13.74;100.00
70930;BME280;58588;48.102;19.682;2022-11-14T13:19:55;100255.00;;;13.78;100.00
70930;BME280;58588;48.102;19.682;2022-11-14T13:26:52;100254.47;;;13.98;100.00
70930;BME280;58588;48.102;19.682;2022-11-14T13:29:55;100252.38;;;13.85;100.00
70930;BME280;58588;48.102;19.682;2022-11-14T13:32:59;100250.16;;;13.88;100.00
70930;BME280;58588;48.102;19.682;2022-11-14T13:36:02;100247.28;;;13.75;100.00
70930;BME280;58588;48.102;19.682;2022-11-14T13:39:20;100242.50;;;13.77;100.00
70930;BME280;58588;48.102;19.682;2022-11-14T13:42:38;100240.47;;;13.50;100.00
70930;BME280;58588;48.102;19.682;2022-11-14T13:45:56;100233.25;;;13.27;100.00
70930;BME280;58588;48.102;19.682;2022-11-14T13:49:12;100228.59;;;13.51;100.00
70930;BME280;58588;48.102;19.682;2022-11-14T13:52:18;100225.41;;;13.32;100.00
70930;BME280;58588;48.102;19.682;2022-11-14T13:55:21;100231.31;;;13.13;100.00
70930;BME280;58588;48.102;19.682;2022-11-14T13:58:35;100224.59;;;13.32;100.00
70930;BME280;58588;48.102;19.682;2022-11-14T14:01:49;100217.53;;;13.08;100.00
70930;BME280;58588;48.102;19.682;2022-11-14T14:05:01;100217.78;;;12.98;100.00
70930;BME280;58588;48.102;19.682;2022-11-14T14:08:13;100206.66;;;13.46;100.00
70930;BME280;58588;48.102;19.682;2022-11-14T14:11:30;100208.38;;;13.83;100.00
70930;BME280;58588;48.102;19.682;2022-11-14T14:14:54;100212.91;;;14.48;99.98
70930;BME280;58588;48.102;19.682;2022-11-14T14:18:05;100211.69;;;14.72;98.69
70930;BME280;58588;48.102;19.682;2022-11-14T14:21:20;100204.28;;;15.15;93.37
70930;BME280;58588;48.102;19.682;2022-11-14T14:24:44;100198.22;;;15.41;90.72
70930;BME280;58588;48.102;19.682;2022-11-14T14:27:57;100202.09;;;15.32;89.29
70930;BME280;58588;48.102;19.682;2022-11-14T14:31:10;100195.81;;;15.25;89.65
70930;BME280;58588;48.102;19.682;2022-11-14T14:34:23;100199.56;;;15.24;89.95
70930;BME280;58588;48.102;19.682;2022-11-14T14:37:27;100198.75;;;15.02;90.52
70930;BME280;58588;48.102;19.682;2022-11-14T14:40:31;100195.66;;;14.56;94.63
70930;BME280;58588;48.102;19.682;2022-11-14T14:43:34;100190.72;;;14.44;95.62
70930;BME280;58588;48.102;19.682;2022-11-14T14:46:37;100180.72;;;14.24;95.87
70930;BME280;58588;48.102;19.682;2022-11-14T14:49:39;100176.22;;;13.95;98.52
70930;BME280;58588;48.102;19.682;2022-11-14T14:53:03;100181.84;;;13.19;100.00
70930;BME280;58588;48.102;19.682;2022-11-14T14:56:20;100182.66;;;12.52;100.00
70930;BME280;58588;48.102;19.682;2022-11-14T14:59:29;100183.50;;;11.76;100.00
70930;BME280;58588;48.102;19.682;2022-11-14T15:02:33;100185.19;;;11.30;100.00
70930;BME280;58588;48.102;19.682;2022-11-14T15:05:35;100182.06;;;10.93;100.00
70930;BME280;58588;48.102;19.682;2022-11-14T15:08:37;100185.31;;;10.56;100.00
70930;BME280;58588;48.102;19.682;2022-11-14T15:11:42;100188.78;;;10.16;100.00
70930;BME280;58588;48.102;19.682;2022-11-14T15:14:44;100181.63;;;9.82;100.00
70930;BME280;58588;48.102;19.682;2022-11-14T15:17:49;100184.78;;;9.61;100.00
70930;BME280;58588;48.102;19.682;2022-11-14T15:21:22;100180.50;;;9.43;100.00
70930;BME280;58588;48.102;19.682;2022-11-14T15:24:26;100183.25;;;9.25;100.00
70930;BME280;58588;48.102;19.682;2022-11-14T15:27:29;100182.75;;;8.95;100.00
70930;BME280;58588;48.102;19.682;2022-11-14T15:30:33;100191.88;;;8.76;100.00
70930;BME280;58588;48.102;19.682;2022-11-14T15:33:36;100191.56;;;8.62;100.00
70930;BME280;58588;48.102;19.682;2022-11-14T15:37:05;100188.41;;;8.40;100.00
70930;BME280;58588;48.102;19.682;2022-11-14T15:40:16;100187.66;;;8.20;100.00
70930;BME280;58588;48.102;19.682;2022-11-14T15:43:44;100188.22;;;8.06;100.00
70930;BME280;58588;48.102;19.682;2022-11-14T15:46:49;100191.28;;;7.93;100.00
70930;BME280;58588;48.102;19.682;2022-11-14T15:49:57;100180.59;;;7.84;100.00
70930;BME280;58588;48.102;19.682;2022-11-14T15:53:01;100178.72;;;7.66;100.00
70930;BME280;58588;48.102;19.682;2022-11-14T15:56:04;100185.00;;;7.57;100.00
70930;BME280;58588;48.102;19.682;2022-11-14T15:59:06;100174.50;;;7.36;100.00
70930;BME280;58588;48.102;19.682;2022-11-14T16:02:11;100182.69;;;7.35;100.00
70930;BME280;58588;48.102;19.682;2022-11-14T16:05:20;100188.56;;;7.20;100.00